createdAt,value
2018-10-12T05:29:08.750Z,36.03
2018-10-12T17:34:00.788Z,31.30
2018-10-12T17:36:34.315Z,31.60
2018-10-12T17:39:10.351Z,31.27
2018-10-12T17:41:43.798Z,31.10
2018-10-12T17:44:17.373Z,30.55
2018-10-12T17:46:50.790Z,30.70
2018-10-12T17:49:24.321Z,30.70
2018-10-12T17:51:57.696Z,30.43
2018-10-12T17:54:31.209Z,30.65
2018-10-12T17:57:05.290Z,30.60
2018-10-12T17:59:38.694Z,30.55
2018-10-12T18:02:12.111Z,30.80
2018-10-12T18:04:45.531Z,30.72
2018-10-12T18:07:18.992Z,30.45
2018-10-12T18:09:53.441Z,30.55
2018-10-12T18:12:26.868Z,30.65
2018-10-12T18:15:00.338Z,30.80
2018-10-12T18:17:33.732Z,30.35
2018-10-12T18:20:07.802Z,30.57
2018-10-12T18:22:41.347Z,30.12
2018-10-12T18:25:14.756Z,30.60
2018-10-12T18:27:48.139Z,30.27
2018-10-12T18:30:21.562Z,30.52
2018-10-12T18:32:55.016Z,30.77
2018-10-12T18:35:28.430Z,30.65
2018-10-12T18:38:01.846Z,30.55
2018-10-12T18:40:35.272Z,30.48
2018-10-12T18:43:08.789Z,30.48
2018-10-12T18:45:42.259Z,30.57
2018-10-12T18:48:15.655Z,30.20
2018-10-12T18:50:49.184Z,30.55
2018-10-12T18:53:23.575Z,30.27
2018-10-12T18:55:57.004Z,30.35
2018-10-12T18:58:30.423Z,30.08
2018-10-12T19:01:03.867Z,30.30
2018-10-12T19:03:37.263Z,30.08
2018-10-12T19:06:12.007Z,30.37
2018-10-12T19:08:45.411Z,30.05
2018-10-12T19:11:18.823Z,30.27
2018-10-12T19:13:52.260Z,30.70
2018-10-12T19:16:26.793Z,29.82
2018-10-12T19:19:00.263Z,29.87
2018-10-12T19:21:33.694Z,29.98
2018-10-12T19:24:07.245Z,30.25
2018-10-12T19:26:40.703Z,30.05
2018-10-12T19:29:14.092Z,30.00
2018-10-12T19:31:48.783Z,29.63
2018-10-12T19:34:22.136Z,30.05
2018-10-12T19:36:55.596Z,30.40
2018-10-12T19:39:28.992Z,30.23
2018-10-12T19:42:02.515Z,29.92
2018-10-12T19:44:36.195Z,30.02
2018-10-12T19:47:09.761Z,30.00
2018-10-12T19:49:43.172Z,29.75
2018-10-12T19:52:16.611Z,29.92
2018-10-12T19:54:50.091Z,29.35
2018-10-12T19:57:23.552Z,29.45
2018-10-12T19:59:56.985Z,29.60
2018-10-12T20:02:30.487Z,29.65
2018-10-12T20:05:03.968Z,29.85
2018-10-12T20:07:37.403Z,29.60
2018-10-12T20:10:10.815Z,32.80
2018-10-12T20:12:44.263Z,30.52
2018-10-12T20:15:17.683Z,29.00
2018-10-12T20:17:51.172Z,29.50
2018-10-12T20:20:24.690Z,29.30
2018-10-12T20:22:58.116Z,29.10
2018-10-12T20:25:31.581Z,29.27
2018-10-12T20:28:05.023Z,29.00
2018-10-12T20:30:38.440Z,29.35
2018-10-12T20:33:11.884Z,29.52
2018-10-12T20:35:45.376Z,29.32
2018-10-12T20:38:18.875Z,29.37
2018-10-12T20:40:52.293Z,29.57
2018-10-12T20:43:26.819Z,29.32
2018-10-12T20:46:00.236Z,29.52
2018-10-12T20:48:33.794Z,28.85
2018-10-12T20:51:07.569Z,29.25
2018-10-12T20:53:40.979Z,28.85
2018-10-12T20:56:14.415Z,28.60
2018-10-12T20:58:47.868Z,29.27
2018-10-12T21:01:21.339Z,29.10
2018-10-12T21:03:54.934Z,29.05
2018-10-12T21:06:28.276Z,28.95
2018-10-12T21:09:01.743Z,29.30
2018-10-12T21:11:35.179Z,29.07
2018-10-12T21:14:08.623Z,28.70
2018-10-12T21:16:42.056Z,28.77
2018-10-12T21:19:15.495Z,29.32
2018-10-12T21:21:48.922Z,29.40
2018-10-12T21:24:22.363Z,29.72
2018-10-12T21:26:55.827Z,30.02
2018-10-12T21:29:29.370Z,31.05
2018-10-12T21:32:02.815Z,30.80
2018-10-12T21:34:36.256Z,30.25
2018-10-12T21:37:09.675Z,29.98
2018-10-12T21:39:43.108Z,30.40
2018-10-12T21:42:16.523Z,30.23
2018-10-12T21:44:49.995Z,30.70
2018-10-12T21:47:23.412Z,30.75
2018-10-12T21:49:56.863Z,30.80
2018-10-12T21:52:30.349Z,30.23
2018-10-12T21:55:03.859Z,30.68
2018-10-12T21:57:37.301Z,30.20
2018-10-12T22:00:10.903Z,30.50
2018-10-12T22:02:44.731Z,30.70
2018-10-12T22:05:18.200Z,30.80
2018-10-12T22:07:51.620Z,30.50
2018-10-12T22:10:25.071Z,30.27
2018-10-12T22:12:58.495Z,30.68
2018-10-12T22:15:31.934Z,30.48
2018-10-12T22:18:05.376Z,29.77
2018-10-12T22:20:38.813Z,29.77
2018-10-12T22:23:12.244Z,30.02
2018-10-12T22:25:45.744Z,29.72
2018-10-12T22:28:19.128Z,29.35
2018-10-12T22:30:52.551Z,30.60
2018-10-12T22:33:25.990Z,29.98
2018-10-12T22:35:59.431Z,29.35
2018-10-12T22:38:32.851Z,29.57
2018-10-12T22:41:06.328Z,29.77
2018-10-12T22:43:39.747Z,29.15
2018-10-12T22:46:13.162Z,29.92
2018-10-12T22:48:47.598Z,29.35
2018-10-12T22:51:21.013Z,29.42
2018-10-12T22:53:54.422Z,29.40
2018-10-12T22:56:27.874Z,29.02
2018-10-12T22:59:01.280Z,29.10
2018-10-12T23:01:34.730Z,29.95
2018-10-12T23:04:08.187Z,29.40
2018-10-12T23:06:41.607Z,28.67
2018-10-12T23:09:15.009Z,29.50
2018-10-12T23:11:48.447Z,29.48
2018-10-12T23:14:21.867Z,29.15
2018-10-12T23:16:55.275Z,28.95
2018-10-12T23:19:28.755Z,29.02
2018-10-12T23:22:02.175Z,29.12
2018-10-12T23:24:35.740Z,29.23
2018-10-12T23:27:09.151Z,29.10
2018-10-12T23:29:42.582Z,28.95
2018-10-12T23:32:16.066Z,29.55
2018-10-12T23:34:49.569Z,29.40
2018-10-12T23:37:23.041Z,29.27
2018-10-12T23:39:56.529Z,29.32
2018-10-12T23:42:30.161Z,28.85
2018-10-12T23:45:03.850Z,29.12
2018-10-12T23:47:37.353Z,29.18
2018-10-12T23:50:10.844Z,28.42
2018-10-12T23:52:44.283Z,29.02
2018-10-12T23:55:17.732Z,28.80
2018-10-12T23:57:51.176Z,28.75
